sensor_id;sensor_type;location;lat;lon;timestamp;pressure;altitude;pressure_sealevel;temperature;humidity
21086;BME280;34247;50.064;19.970;2023-03-05T00:00:16;98953.78;;;4.31;74.00
21086;BME280;34247;50.064;19.970;2023-03-05T00:01:29;98958.25;;;4.29;74.12
21086;BME280;34247;50.064;19.970;2023-03-05T00:02:38;98952.91;;;4.30;74.40
21086;BME280;34247;50.064;19.970;2023-03-05T00:03:45;98957.34;;;4.30;74.38
21086;BME280;34247;50.064;19.970;2023-03-05T00:04:49;98951.31;;;4.28;74.39
21086;BME280;34247;50.064;19.970;2023-03-05T00:05:56;98954.78;;;4.28;74.41
21086;BME280;34247;50.064;19.970;2023-03-05T00:07:00;98956.47;;;4.29;74.70
21086;BME280;34247;50.064;19.970;2023-03-05T00:08:04;98958.25;;;4.29;74.45
21086;BME280;34247;50.064;19.970;2023-03-05T00:09:15;98954.78;;;4.28;74.60
21086;BME280;34247;50.064;19.970;2023-03-05T00:10:20;98950.50;;;4.26;74.95
21086;BME280;34247;50.064;19.970;2023-03-05T00:11:27;98955.75;;;4.26;74.40
21086;BME280;34247;50.064;19.970;2023-03-05T00:12:32;98954.06;;;4.25;74.40
21086;BME280;34247;50.064;19.970;2023-03-05T00:13:37;98954.91;;;4.25;74.18
21086;BME280;34247;50.064;19.970;2023-03-05T00:14:41;98952.19;;;4.27;74.18
21086;BME280;34247;50.064;19.970;2023-03-05T00:15:47;98952.38;;;4.24;74.22
21086;BME280;34247;50.064;19.970;2023-03-05T00:16:51;98950.94;;;4.17;74.00
21086;BME280;34247;50.064;19.970;2023-03-05T00:17:55;98951.25;;;4.10;73.24
21086;BME280;34247;50.064;19.970;2023-03-05T00:19:00;98951.53;;;4.04;73.95
21086;BME280;34247;50.064;19.970;2023-03-05T00:20:06;98948.53;;;4.12;73.92
21086;BME280;34247;50.064;19.970;2023-03-05T00:21:30;98946.63;;;4.15;73.43
21086;BME280;34247;50.064;19.970;2023-03-05T00:22:35;98955.44;;;4.14;72.89
21086;BME280;34247;50.064;19.970;2023-03-05T00:23:39;98954.09;;;4.06;71.53
21086;BME280;34247;50.064;19.970;2023-03-05T00:24:42;98953.22;;;4.05;71.23
21086;BME280;34247;50.064;19.970;2023-03-05T00:25:46;98948.97;;;4.03;70.97
21086;BME280;34247;50.064;19.970;2023-03-05T00:26:50;98950.59;;;4.05;71.10
21086;BME280;34247;50.064;19.970;2023-03-05T00:27:55;98947.97;;;4.05;70.96
21086;BME280;34247;50.064;19.970;2023-03-05T00:28:59;98955.00;;;4.05;70.50
21086;BME280;34247;50.064;19.970;2023-03-05T00:30:08;98942.09;;;4.00;69.92
21086;BME280;34247;50.064;19.970;2023-03-05T00:31:12;98947.97;;;4.05;70.42
21086;BME280;34247;50.064;19.970;2023-03-05T00:32:17;98947.00;;;4.08;70.18
21086;BME280;34247;50.064;19.970;2023-03-05T00:33:21;98946.16;;;4.07;69.92
21086;BME280;34247;50.064;19.970;2023-03-05T00:34:25;98938.25;;;4.07;69.73
21086;BME280;34247;50.064;19.970;2023-03-05T00:35:31;98937.47;;;4.05;69.04
21086;BME280;34247;50.064;19.970;2023-03-05T00:36:46;98934.44;;;3.96;67.94
21086;BME280;34247;50.064;19.970;2023-03-05T00:37:51;98937.50;;;3.86;66.43
21086;BME280;34247;50.064;19.970;2023-03-05T00:38:56;98939.75;;;3.94;67.25
21086;BME280;34247;50.064;19.970;2023-03-05T00:40:01;98934.31;;;3.99;67.17
21086;BME280;34247;50.064;19.970;2023-03-05T00:41:08;98938.91;;;3.94;66.33
21086;BME280;34247;50.064;19.970;2023-03-05T00:42:12;98939.03;;;3.91;65.79
21086;BME280;34247;50.064;19.970;2023-03-05T00:43:16;98935.34;;;3.95;66.39
21086;BME280;34247;50.064;19.970;2023-03-05T00:44:20;98933.66;;;3.94;65.00
21086;BME280;34247;50.064;19.970;2023-03-05T00:45:24;98927.69;;;3.90;64.21
21086;BME280;34247;50.064;19.970;2023-03-05T00:46:27;98931.50;;;3.83;64.08
21086;BME280;34247;50.064;19.970;2023-03-05T00:47:31;98932.44;;;3.82;63.59
21086;BME280;34247;50.064;19.970;2023-03-05T00:48:36;98931.66;;;3.80;63.30
21086;BME280;34247;50.064;19.970;2023-03-05T00:49:40;98928.00;;;3.84;63.86
21086;BME280;34247;50.064;19.970;2023-03-05T00:50:47;98929.69;;;3.85;63.23
21086;BME280;34247;50.064;19.970;2023-03-05T00:51:51;98921.94;;;3.82;62.99
21086;BME280;34247;50.064;19.970;2023-03-05T00:52:55;98921.81;;;3.85;63.25
21086;BME280;34247;50.064;19.970;2023-03-05T00:53:59;98926.25;;;3.83;62.48
21086;BME280;34247;50.064;19.970;2023-03-05T00:55:05;98924.44;;;3.85;62.83
21086;BME280;34247;50.064;19.970;2023-03-05T00:56:14;98920.81;;;3.87;62.72
21086;BME280;34247;50.064;19.970;2023-03-05T00:57:19;98920.88;;;3.86;62.60
21086;BME280;34247;50.064;19.970;2023-03-05T00:58:22;98919.03;;;3.88;62.95
21086;BME280;34247;50.064;19.970;2023-03-05T00:59:27;98915.47;;;3.89;62.87
21086;BME280;34247;50.064;19.970;2023-03-05T01:00:31;98923.63;;;3.83;63.00
21086;BME280;34247;50.064;19.970;2023-03-05T01:01:36;98921.66;;;3.88;63.13
21086;BME280;34247;50.064;19.970;2023-03-05T01:02:40;98920.03;;;3.85;62.30
21086;BME280;34247;50.064;19.970;2023-03-05T01:03:44;98919.03;;;3.88;62.77
21086;BME280;34247;50.064;19.970;2023-03-05T01:04:47;98925.84;;;3.92;62.75
21086;BME280;34247;50.064;19.970;2023-03-05T01:05:51;98922.31;;;3.93;62.19
21086;BME280;34247;50.064;19.970;2023-03-05T01:06:55;98927.63;;;3.92;61.31
21086;BME280;34247;50.064;19.970;2023-03-05T01:07:59;98922.31;;;3.93;61.92
21086;BME280;34247;50.064;19.970;2023-03-05T01:09:10;98924.84;;;3.95;62.50
21086;BME280;34247;50.064;19.970;2023-03-05T01:10:14;98923.00;;;3.97;62.27
21086;BME280;34247;50.064;19.970;2023-03-05T01:11:17;98924.66;;;3.99;62.57
21086;BME280;34247;50.064;19.970;2023-03-05T01:12:22;98921.00;;;4.02;62.35
21086;BME280;34247;50.064;19.970;2023-03-05T01:13:26;98923.72;;;4.00;62.17
21086;BME280;34247;50.064;19.970;2023-03-05T01:14:29;98913.22;;;4.00;62.86
21086;BME280;34247;50.064;19.970;2023-03-05T01:15:34;98912.41;;;3.98;62.79
21086;BME280;34247;50.064;19.970;2023-03-05T01:16:37;98908.03;;;3.99;62.53
21086;BME280;34247;50.064;19.970;2023-03-05T01:17:41;98918.38;;;4.02;62.57
21086;BME280;34247;50.064;19.970;2023-03-05T01:18:45;98918.38;;;4.02;62.46
21086;BME280;34247;50.064;19.970;2023-03-05T01:19:49;98907.88;;;4.02;62.19
21086;BME280;34247;50.064;19.970;2023-03-05T01:20:52;98917.38;;;4.04;62.72
21086;BME280;34247;50.064;19.970;2023-03-05T01:21:57;98908.53;;;4.07;62.63
21086;BME280;34247;50.064;19.970;2023-03-05T01:23:01;98917.25;;;4.07;62.84
21086;BME280;34247;50.064;19.970;2023-03-05T01:24:10;98919.78;;;4.09;63.04
21086;BME280;34247;50.064;19.970;2023-03-05T01:25:18;98918.94;;;4.08;62.86
21086;BME280;34247;50.064;19.970;2023-03-05T01:26:22;98923.44;;;4.06;62.86
21086;BME280;34247;50.064;19.970;2023-03-05T01:27:26;98919.44;;;3.98;63.28
21086;BME280;34247;50.064;19.970;2023-03-05T01:28:30;98916.78;;;3.99;63.40
21086;BME280;34247;50.064;19.970;2023-03-05T01:29:36;98920.16;;;4.01;63.40
21086;BME280;34247;50.064;19.970;2023-03-05T01:30:40;98919.16;;;4.04;63.53
21086;BME280;34247;50.064;19.970;2023-03-05T01:31:46;98920.00;;;4.04;63.46
21086;BME280;34247;50.064;19.970;2023-03-05T01:32:50;98918.31;;;4.03;62.85
21086;BME280;34247;50.064;19.970;2023-03-05T01:33:54;98922.16;;;3.96;62.21
21086;BME280;34247;50.064;19.970;2023-03-05T01:35:01;98927.28;;;3.99;62.13
21086;BME280;34247;50.064;19.970;2023-03-05T01:36:13;98923.34;;;3.89;60.35
21086;BME280;34247;50.064;19.970;2023-03-05T01:37:19;98915.47;;;3.89;60.02
21086;BME280;34247;50.064;19.970;2023-03-05T01:38:23;98916.13;;;3.94;61.24
21086;BME280;34247;50.064;19.970;2023-03-05T01:39:27;98921.22;;;3.97;60.64
21086;BME280;34247;50.064;19.970;2023-03-05T01:40:33;98922.91;;;3.98;60.19
21086;BME280;34247;50.064;19.970;2023-03-05T01:41:37;98922.44;;;3.90;59.42
21086;BME280;34247;50.064;19.970;2023-03-05T01:42:54;98918.34;;;3.84;58.96
21086;BME280;34247;50.064;19.970;2023-03-05T01:44:01;98922.66;;;3.85;58.84
21086;BME280;34247;50.064;19.970;2023-03-05T01:45:14;98922.09;;;3.79;58.27
21086;BME280;34247;50.064;19.970;2023-03-05T01:46:35;98921.00;;;3.83;58.51
21086;BME280;34247;50.064;19.970;2023-03-05T01:47:40;98918.63;;;3.78;57.35
21086;BME280;34247;50.064;19.970;2023-03-05T01:48:49;98915.44;;;3.72;56.60
21086;BME280;34247;50.064;19.970;2023-03-05T01:49:56;98911.88;;;3.73;57.62
21086;BME280;34247;50.064;19.970;2023-03-05T01:51:00;98916.06;;;3.77;57.38
21086;BME280;34247;50.064;19.970;2023-03-05T01:52:19;98921.25;;;3.78;56.97
21086;BME280;34247;50.064;19.970;2023-03-05T01:53:24;98919.53;;;3.77;56.68
21086;BME280;34247;50.064;19.970;2023-03-05T01:54:46;98915.06;;;3.79;56.96
21086;BME280;34247;50.064;19.970;2023-03-05T01:55:50;98915.06;;;3.79;56.90
21086;BME280;34247;50.064;19.970;2023-03-05T01:56:59;98918.63;;;3.78;57.11
21086;BME280;34247;50.064;19.970;2023-03-05T01:58:10;98920.16;;;3.82;57.26
21086;BME280;34247;50.064;19.970;2023-03-05T01:59:17;98917.53;;;3.82;56.72
21086;BME280;34247;50.064;19.970;2023-03-05T02:00:45;98914.13;;;3.80;56.52
21086;BME280;34247;50.064;19.970;2023-03-05T02:01:55;98915.19;;;3.76;56.25
21086;BME280;34247;50.064;19.970;2023-03-05T02:03:16;98910.94;;;3.74;55.96
21086;BME280;34247;50.064;19.970;2023-03-05T02:04:30;98916.91;;;3.77;56.26
21086;BME280;34247;50.064;19.970;2023-03-05T02:05:40;98917.78;;;3.78;56.77
21086;BME280;34247;50.064;19.970;2023-03-05T02:06:48;98914.13;;;3.80;56.32
21086;BME280;34247;50.064;19.970;2023-03-05T02:07:57;98919.31;;;3.82;56.31
21086;BME280;34247;50.064;19.970;2023-03-05T02:09:01;98915.06;;;3.79;56.44
21086;BME280;34247;50.064;19.970;2023-03-05T02:10:53;98916.69;;;3.82;55.97
21086;BME280;34247;50.064;19.970;2023-03-05T02:12:10;98908.81;;;3.82;55.91
21086;BME280;34247;50.064;19.970;2023-03-05T02:13:24;98908.69;;;3.85;55.81
21086;BME280;34247;50.064;19.970;2023-03-05T02:14:28;98908.97;;;3.79;55.30
21086;BME280;34247;50.064;19.970;2023-03-05T02:15:34;98906.09;;;3.83;55.73
21086;BME280;34247;50.064;19.970;2023-03-05T02:16:38;98901.75;;;3.84;55.29
21086;BME280;34247;50.064;19.970;2023-03-05T02:17:43;98906.25;;;3.80;54.22
21086;BME280;34247;50.064;19.970;2023-03-05T02:18:49;98913.13;;;3.83;55.01
21086;BME280;34247;50.064;19.970;2023-03-05T02:20:03;98914.88;;;3.84;54.87
21086;BME280;34247;50.064;19.970;2023-03-05T02:21:11;98909.66;;;3.82;54.72
21086;BME280;34247;50.064;19.970;2023-03-05T02:22:18;98906.09;;;3.83;54.89
21086;BME280;34247;50.064;19.970;2023-03-05T02:23:32;98908.13;;;3.78;54.34
21086;BME280;34247;50.064;19.970;2023-03-05T02:24:39;98909.09;;;3.76;53.08
21086;BME280;34247;50.064;19.970;2023-03-05T02:25:44;98914.22;;;3.79;54.17
21086;BME280;34247;50.064;19.970;2023-03-05T02:26:48;98904.00;;;3.73;53.60
21086;BME280;34247;50.064;19.970;2023-03-05T02:29:16;98906.69;;;3.71;52.94
21086;BME280;34247;50.064;19.970;2023-03-05T02:30:21;98908.41;;;3.72;53.18
21086;BME280;34247;50.064;19.970;2023-03-05T02:31:26;98902.44;;;3.69;53.38
21086;BME280;34247;50.064;19.970;2023-03-05T02:32:30;98901.44;;;3.71;53.83
21086;BME280;34247;50.064;19.970;2023-03-05T02:33:35;98902.09;;;3.57;53.48
21086;BME280;34247;50.064;19.970;2023-03-05T02:34:42;98907.06;;;3.64;53.88
21086;BME280;34247;50.064;19.970;2023-03-05T02:35:46;98898.34;;;3.63;53.70
21086;BME280;34247;50.064;19.970;2023-03-05T02:36:53;98911.50;;;3.62;52.89
21086;BME280;34247;50.064;19.970;2023-03-05T02:38:00;98906.34;;;3.60;52.37
21086;BME280;34247;50.064;19.970;2023-03-05T02:39:04;98907.25;;;3.59;51.88
21086;BME280;34247;50.064;19.970;2023-03-05T02:40:11;98901.59;;;3.49;51.60
21086;BME280;34247;50.064;19.970;2023-03-05T02:41:15;98909.53;;;3.48;51.25
21086;BME280;34247;50.064;19.970;2023-03-05T02:42:19;98896.34;;;3.49;50.99
21086;BME280;34247;50.064;19.970;2023-03-05T02:43:25;98898.03;;;3.50;51.21
21086;BME280;34247;50.064;19.970;2023-03-05T02:44:29;98892.72;;;3.52;51.28
21086;BME280;34247;50.064;19.970;2023-03-05T02:45:33;98898.72;;;3.54;51.06
21086;BME280;34247;50.064;19.970;2023-03-05T02:46:36;98897.69;;;3.58;51.62
21086;BME280;34247;50.064;19.970;2023-03-05T02:47:41;98889.72;;;3.59;51.76
21086;BME280;34247;50.064;19.970;2023-03-05T02:48:44;98890.50;;;3.62;51.53
21086;BME280;34247;50.064;19.970;2023-03-05T02:49:48;98890.66;;;3.58;50.92
21086;BME280;34247;50.064;19.970;2023-03-05T02:50:53;98887.88;;;3.62;50.58
21086;BME280;34247;50.064;19.970;2023-03-05T02:51:57;98891.31;;;3.64;51.12
21086;BME280;34247;50.064;19.970;2023-03-05T02:53:01;98888.69;;;3.64;51.17
21086;BME280;34247;50.064;19.970;2023-03-05T02:54:14;98888.53;;;3.67;50.72
21086;BME280;34247;50.064;19.970;2023-03-05T02:55:19;98890.38;;;3.65;50.55
21086;BME280;34247;50.064;19.970;2023-03-05T02:56:23;98887.75;;;3.65;50.63
21086;BME280;34247;50.064;19.970;2023-03-05T02:57:27;98882.50;;;3.65;50.31
21086;BME280;34247;50.064;19.970;2023-03-05T02:58:31;98886.91;;;3.64;49.84
21086;BME280;34247;50.064;19.970;2023-03-05T02:59:35;98884.63;;;3.56;49.40
21086;BME280;34247;50.064;19.970;2023-03-05T03:03:06;98882.78;;;3.58;49.77
21086;BME280;34247;50.064;19.970;2023-03-05T03:04:24;98880.25;;;3.57;49.43
21086;BME280;34247;50.064;19.970;2023-03-05T03:05:33;98881.00;;;3.59;49.71
21086;BME280;34247;50.064;19.970;2023-03-05T03:06:50;98887.88;;;3.62;49.48
21086;BME280;34247;50.064;19.970;2023-03-05T03:07:54;98891.34;;;3.62;49.75
21086;BME280;34247;50.064;19.970;2023-03-05T03:08:58;98878.22;;;3.62;49.29
21086;BME280;34247;50.064;19.970;2023-03-05T03:10:04;98883.72;;;3.57;47.88
21086;BME280;34247;50.064;19.970;2023-03-05T03:11:20;98879.31;;;3.58;48.46
21086;BME280;34247;50.064;19.970;2023-03-05T03:12:24;98881.00;;;3.59;48.81
21086;BME280;34247;50.064;19.970;2023-03-05T03:13:28;98881.28;;;3.53;47.32
21086;BME280;34247;50.064;19.970;2023-03-05T03:14:34;98876.19;;;3.50;47.59
21086;BME280;34247;50.064;19.970;2023-03-05T03:15:42;98877.25;;;3.46;46.99
21086;BME280;34247;50.064;19.970;2023-03-05T03:16:46;98877.13;;;3.49;47.85
21086;BME280;34247;50.064;19.970;2023-03-05T03:17:51;98870.09;;;3.49;47.89
21086;BME280;34247;50.064;19.970;2023-03-05T03:18:55;98881.38;;;3.51;47.56
21086;BME280;34247;50.064;19.970;2023-03-05T03:20:00;98878.75;;;3.51;47.69
21086;BME280;34247;50.064;19.970;2023-03-05T03:21:07;98881.22;;;3.54;48.21
21086;BME280;34247;50.064;19.970;2023-03-05T03:22:14;98884.63;;;3.56;48.02
21086;BME280;34247;50.064;19.970;2023-03-05T03:23:18;98881.94;;;3.58;48.33
21086;BME280;34247;50.064;19.970;2023-03-05T03:24:22;98883.72;;;3.57;47.83
21086;BME280;34247;50.064;19.970;2023-03-05T03:25:26;98887.09;;;3.59;48.43
21086;BME280;34247;50.064;19.970;2023-03-05T03:26:29;98887.97;;;3.60;48.45
21086;BME280;34247;50.064;19.970;2023-03-05T03:27:34;98880.09;;;3.60;48.36
21086;BME280;34247;50.064;19.970;2023-03-05T03:28:38;98884.41;;;3.61;48.81
21086;BME280;34247;50.064;19.970;2023-03-05T03:29:42;98884.06;;;3.50;48.66
21086;BME280;34247;50.064;19.970;2023-03-05T03:30:45;98883.84;;;3.54;49.12
21086;BME280;34247;50.064;19.970;2023-03-05T03:31:50;98876.84;;;3.55;49.07
21086;BME280;34247;50.064;19.970;2023-03-05T03:32:54;98879.47;;;3.55;48.82
21086;BME280;34247;50.064;19.970;2023-03-05T03:33:58;98877.03;;;3.50;48.92
21086;BME280;34247;50.064;19.970;2023-03-05T03:35:02;98873.50;;;3.51;49.39
21086;BME280;34247;50.064;19.970;2023-03-05T03:36:09;98878.66;;;3.53;49.44
21086;BME280;34247;50.064;19.970;2023-03-05T03:37:13;98878.59;;;3.54;49.28
21086;BME280;34247;50.064;19.970;2023-03-05T03:38:17;98880.31;;;3.55;49.69
21086;BME280;34247;50.064;19.970;2023-03-05T03:39:21;98874.22;;;3.55;49.43
21086;BME280;34247;50.064;19.970;2023-03-05T03:40:26;98873.34;;;3.54;48.97
21086;BME280;34247;50.064;19.970;2023-03-05T03:41:30;98871.59;;;3.55;48.85
21086;BME280;34247;50.064;19.970;2023-03-05T03:42:34;98866.47;;;3.52;48.22
21086;BME280;34247;50.064;19.970;2023-03-05T03:43:41;98870.66;;;3.37;46.94
21086;BME280;34247;50.064;19.970;2023-03-05T03:44:45;98862.84;;;3.36;46.72
21086;BME280;34247;50.064;19.970;2023-03-05T03:45:49;98863.78;;;3.35;47.44
21086;BME280;34247;50.064;19.970;2023-03-05T03:46:53;98864.47;;;3.38;47.44
21086;BME280;34247;50.064;19.970;2023-03-05T03:47:58;98860.88;;;3.41;47.19
21086;BME280;34247;50.064;19.970;2023-03-05T03:49:21;98866.34;;;3.36;47.57
21086;BME280;34247;50.064;19.970;2023-03-05T03:50:26;98854.91;;;3.37;47.51
21086;BME280;34247;50.064;19.970;2023-03-05T03:51:42;98858.56;;;3.33;47.39
21086;BME280;34247;50.064;19.970;2023-03-05T03:52:46;98863.91;;;3.31;47.39
21086;BME280;34247;50.064;19.970;2023-03-05T03:53:50;98863.81;;;3.33;47.25
21086;BME280;34247;50.064;19.970;2023-03-05T03:54:56;98859.47;;;3.34;47.03
21086;BME280;34247;50.064;19.970;2023-03-05T03:56:06;98855.25;;;3.29;46.94
21086;BME280;34247;50.064;19.970;2023-03-05T03:57:12;98850.22;;;3.25;46.07
21086;BME280;34247;50.064;19.970;2023-03-05T03:58:16;98863.22;;;3.28;46.75
21086;BME280;34247;50.064;19.970;2023-03-05T03:59:20;98849.09;;;3.30;46.80
21086;BME280;34247;50.064;19.970;2023-03-05T04:00:24;98853.41;;;3.31;46.55
21086;BME280;34247;50.064;19.970;2023-03-05T04:01:28;98847.31;;;3.31;46.07
21086;BME280;34247;50.064;19.970;2023-03-05T04:02:33;98851.88;;;3.27;46.56
21086;BME280;34247;50.064;19.970;2023-03-05T04:03:37;98852.22;;;3.20;46.35
21086;BME280;34247;50.064;19.970;2023-03-05T04:04:41;98853.84;;;3.22;46.38
21086;BME280;34247;50.064;19.970;2023-03-05T04:05:44;98851.13;;;3.24;46.59
21086;BME280;34247;50.064;19.970;2023-03-05T04:06:48;98857.31;;;3.23;46.55
21086;BME280;34247;50.064;19.970;2023-03-05T04:07:52;98851.22;;;3.22;46.45
21086;BME280;34247;50.064;19.970;2023-03-05T04:08:57;98837.94;;;3.25;46.53
21086;BME280;34247;50.064;19.970;2023-03-05T04:10:02;98850.00;;;3.29;46.45
21086;BME280;34247;50.064;19.970;2023-03-05T04:11:12;98848.50;;;3.24;46.39
21086;BME280;34247;50.064;19.970;2023-03-05T04:12:19;98848.41;;;3.27;46.54
21086;BME280;34247;50.064;19.970;2023-03-05T04:13:25;98848.25;;;3.30;46.57
21086;BME280;34247;50.064;19.970;2023-03-05T04:14:29;98842.22;;;3.28;46.37
21086;BME280;34247;50.064;19.970;2023-03-05T04:15:34;98848.25;;;3.30;46.43
21086;BME280;34247;50.064;19.970;2023-03-05T04:16:38;98850.78;;;3.31;46.68
21086;BME280;34247;50.064;19.970;2023-03-05T04:17:42;98844.69;;;3.31;46.70
21086;BME280;34247;50.064;19.970;2023-03-05T04:18:46;98847.59;;;3.25;46.34
21086;BME280;34247;50.064;19.970;2023-03-05T04:19:50;98838.81;;;3.26;46.43
21086;BME280;34247;50.064;19.970;2023-03-05T04:20:53;98840.81;;;3.21;45.97
21086;BME280;34247;50.064;19.970;2023-03-05T04:21:58;98842.34;;;3.25;46.86
21086;BME280;34247;50.064;19.970;2023-03-05T04:23:02;98839.59;;;3.28;46.98
21086;BME280;34247;50.064;19.970;2023-03-05T04:24:10;98841.38;;;3.27;47.09
21086;BME280;34247;50.064;19.970;2023-03-05T04:25:14;98843.41;;;3.21;47.13
21086;BME280;34247;50.064;19.970;2023-03-05T04:26:18;98842.34;;;3.25;47.64
21086;BME280;34247;50.064;19.970;2023-03-05T04:27:22;98831.94;;;3.23;47.08
21086;BME280;34247;50.064;19.970;2023-03-05T04:28:26;98830.44;;;3.18;47.55
21086;BME280;34247;50.064;19.970;2023-03-05T04:29:31;98831.06;;;3.23;47.64
21086;BME280;34247;50.064;19.970;2023-03-05T04:30:35;98825.41;;;3.13;47.63
21086;BME280;34247;50.064;19.970;2023-03-05T04:31:39;98822.22;;;3.07;48.14
21086;BME280;34247;50.064;19.970;2023-03-05T04:32:43;98829.56;;;2.98;48.01
21086;BME280;34247;50.064;19.970;2023-03-05T04:33:47;98827.72;;;3.00;48.33
21086;BME280;34247;50.064;19.970;2023-03-05T04:34:51;98823.91;;;3.08;48.30
21086;BME280;34247;50.064;19.970;2023-03-05T04:35:54;98824.56;;;3.13;48.34
21086;BME280;34247;50.064;19.970;2023-03-05T04:36:59;98826.97;;;3.17;48.24
21086;BME280;34247;50.064;19.970;2023-03-05T04:38:03;98820.88;;;3.17;48.27
21086;BME280;34247;50.064;19.970;2023-03-05T04:39:08;98821.78;;;3.16;48.82
21086;BME280;34247;50.064;19.970;2023-03-05T04:40:13;98815.78;;;3.14;48.90
21086;BME280;34247;50.064;19.970;2023-03-05T04:41:17;98823.63;;;3.14;48.56
21086;BME280;34247;50.064;19.970;2023-03-05T04:42:21;98819.31;;;3.13;48.79
21086;BME280;34247;50.064;19.970;2023-03-05T04:43:25;98822.56;;;3.18;49.20
21086;BME280;34247;50.064;19.970;2023-03-05T04:44:30;98821.00;;;3.14;50.20
21086;BME280;34247;50.064;19.970;2023-03-05T04:45:34;98812.91;;;3.18;50.03
21086;BME280;34247;50.064;19.970;2023-03-05T04:46:37;98817.41;;;3.16;50.88
21086;BME280;34247;50.064;19.970;2023-03-05T04:47:42;98817.28;;;3.19;51.27
21086;BME280;34247;50.064;19.970;2023-03-05T04:48:46;98817.13;;;3.22;51.21
21086;BME280;34247;50.064;19.970;2023-03-05T04:49:50;98815.25;;;3.24;51.77
21086;BME280;34247;50.064;19.970;2023-03-05T04:50:54;98820.59;;;3.23;52.37
21086;BME280;34247;50.064;19.970;2023-03-05T04:52:00;98817.47;;;3.15;54.34
21086;BME280;34247;50.064;19.970;2023-03-05T04:53:05;98820.94;;;3.15;53.91
21086;BME280;34247;50.064;19.970;2023-03-05T04:54:12;98819.94;;;3.18;53.65
21086;BME280;34247;50.064;19.970;2023-03-05T04:55:17;98823.22;;;3.23;53.52
21086;BME280;34247;50.064;19.970;2023-03-05T04:56:20;98820.59;;;3.23;54.20
21086;BME280;34247;50.064;19.970;2023-03-05T04:57:25;98818.72;;;3.25;54.12
21086;BME280;34247;50.064;19.970;2023-03-05T04:58:29;98818.13;;;3.20;54.85
21086;BME280;34247;50.064;19.970;2023-03-05T04:59:33;98823.22;;;3.23;54.71
21086;BME280;34247;50.064;19.970;2023-03-05T05:00:37;98819.75;;;3.22;55.16
21086;BME280;34247;50.064;19.970;2023-03-05T05:01:41;98815.34;;;3.23;54.88
21086;BME280;34247;50.064;19.970;2023-03-05T05:02:49;98811.78;;;3.24;55.02
21086;BME280;34247;50.064;19.970;2023-03-05T05:03:53;98823.13;;;3.24;55.25
21086;BME280;34247;50.064;19.970;2023-03-05T05:04:57;98811.78;;;3.24;55.34
21086;BME280;34247;50.064;19.970;2023-03-05T05:06:01;98806.53;;;3.24;55.22
21086;BME280;34247;50.064;19.970;2023-03-05T05:07:07;98817.84;;;3.26;55.54
21086;BME280;34247;50.064;19.970;2023-03-05T05:08:11;98798.84;;;3.21;55.84
21086;BME280;34247;50.064;19.970;2023-03-05T05:09:15;98803.06;;;3.23;55.54
21086;BME280;34247;50.064;19.970;2023-03-05T05:10:20;98797.91;;;3.22;55.77
21086;BME280;34247;50.064;19.970;2023-03-05T05:11:23;98804.09;;;3.21;55.89
21086;BME280;34247;50.064;19.970;2023-03-05T05:12:29;98803.06;;;3.23;55.58
21086;BME280;34247;50.064;19.970;2023-03-05T05:13:34;98799.59;;;3.23;55.68
21086;BME280;34247;50.064;19.970;2023-03-05T05:14:37;98801.47;;;3.21;55.54
21086;BME280;34247;50.064;19.970;2023-03-05T05:15:41;98792.81;;;3.19;55.85
21086;BME280;34247;50.064;19.970;2023-03-05T05:16:45;98794.63;;;3.17;56.03
21086;BME280;34247;50.064;19.970;2023-03-05T05:17:49;98791.94;;;3.18;56.26
21086;BME280;34247;50.064;19.970;2023-03-05T05:18:53;98800.22;;;3.09;56.77
21086;BME280;34247;50.064;19.970;2023-03-05T05:19:57;98800.22;;;3.09;57.32
21086;BME280;34247;50.064;19.970;2023-03-05T05:21:00;98791.53;;;3.09;57.43
21086;BME280;34247;50.064;19.970;2023-03-05T05:22:04;98796.69;;;3.10;57.37
21086;BME280;34247;50.064;19.970;2023-03-05T05:23:12;98790.66;;;3.08;57.92
21086;BME280;34247;50.064;19.970;2023-03-05T05:24:16;98794.22;;;3.07;57.84
21086;BME280;34247;50.064;19.970;2023-03-05T05:25:20;98796.09;;;3.03;59.06
21086;BME280;34247;50.064;19.970;2023-03-05T05:26:24;98793.44;;;3.05;58.55
21086;BME280;34247;50.064;19.970;2023-03-05T05:27:28;98795.06;;;3.08;58.82
21086;BME280;34247;50.064;19.970;2023-03-05T05:28:34;98793.38;;;3.07;58.70
21086;BME280;34247;50.064;19.970;2023-03-05T05:29:38;98794.28;;;3.06;58.96
21086;BME280;34247;50.064;19.970;2023-03-05T05:30:42;98796.84;;;3.07;59.10
21086;BME280;34247;50.064;19.970;2023-03-05T05:31:46;98789.81;;;3.08;58.93
21086;BME280;34247;50.064;19.970;2023-03-05T05:32:50;98788.97;;;3.07;60.05
21086;BME280;34247;50.064;19.970;2023-03-05T05:33:53;98791.59;;;3.07;59.99
21086;BME280;34247;50.064;19.970;2023-03-05T05:34:58;98789.09;;;3.04;60.36
21086;BME280;34247;50.064;19.970;2023-03-05T05:36:06;98784.19;;;2.96;61.45
21086;BME280;34247;50.064;19.970;2023-03-05T05:37:11;98787.66;;;2.97;61.32
21086;BME280;34247;50.064;19.970;2023-03-05T05:38:15;98788.66;;;2.94;62.18
21086;BME280;34247;50.064;19.970;2023-03-05T05:39:19;98787.66;;;2.97;61.72
21086;BME280;34247;50.064;19.970;2023-03-05T05:40:23;98790.28;;;2.97;62.09
21086;BME280;34247;50.064;19.970;2023-03-05T05:41:27;98784.16;;;2.98;62.25
21086;BME280;34247;50.064;19.970;2023-03-05T05:42:31;98789.59;;;2.93;63.34
21086;BME280;34247;50.064;19.970;2023-03-05T05:43:36;98787.81;;;2.94;63.33
21086;BME280;34247;50.064;19.970;2023-03-05T05:44:43;98786.28;;;2.90;64.47
21086;BME280;34247;50.064;19.970;2023-03-05T05:45:47;98788.81;;;2.91;64.24
21086;BME280;34247;50.064;19.970;2023-03-05T05:46:52;98786.97;;;2.93;63.88
21086;BME280;34247;50.064;19.970;2023-03-05T05:47:55;98786.97;;;2.93;64.29
21086;BME280;34247;50.064;19.970;2023-03-05T05:48:59;98790.44;;;2.94;65.22
21086;BME280;34247;50.064;19.970;2023-03-05T05:50:04;98788.81;;;2.91;65.92
21086;BME280;34247;50.064;19.970;2023-03-05T05:51:16;98791.44;;;2.91;66.07
21086;BME280;34247;50.064;19.970;2023-03-05T05:52:21;98787.03;;;2.92;66.36